Terminal Aerodrome Forecast
Issued by NWS

Home | Current Version | Previous Version | Text Only | Print | Product List | Glossary On
Versions: 1 2 3 4 5 6 7 8 9 10 11 12 13 14 15 16 17 18 19
000
FTUS41 KGYX 211126
TAFLEB
TAF
KLEB 211126Z 2112/2212 VRB03KT 6SM -RA BR OVC050
     FM211700 08004KT 4SM -RA BR OVC007
     FM220000 00000KT 4SM -RA BR OVC015
     FM220800 01002KT 1/2SM FG OVC001=

USA.gov is the U.S. government's official web portal to all federal, state and local government web resources and services.